createdAt,value
2022-09-16T00:00:28.163Z,12.60
2022-09-16T00:02:55.269Z,12.50
2022-09-16T00:05:22.492Z,12.50
2022-09-16T00:07:49.464Z,12.50
2022-09-16T00:10:16.954Z,12.50
2022-09-16T00:12:43.770Z,12.50
2022-09-16T00:15:12.838Z,12.60
2022-09-16T00:17:39.703Z,12.50
2022-09-16T00:20:07.579Z,12.50
2022-09-16T00:22:34.715Z,12.50
2022-09-16T00:25:01.318Z,12.50
2022-09-16T00:27:28.047Z,12.50
2022-09-16T00:29:54.789Z,12.40
2022-09-16T00:32:21.388Z,12.40
2022-09-16T00:34:47.999Z,12.40
2022-09-16T00:37:15.308Z,12.40
2022-09-16T00:39:41.917Z,12.30
2022-09-16T00:42:12.021Z,12.30
2022-09-16T00:45:02.161Z,12.30
2022-09-16T00:47:38.174Z,12.40
2022-09-16T00:50:18.728Z,12.30
2022-09-16T00:52:45.774Z,12.30
2022-09-16T00:55:17.450Z,12.20
2022-09-16T00:57:45.654Z,12.20
2022-09-16T01:00:13.725Z,12.10
2022-09-16T01:02:43.794Z,12.10
2022-09-16T01:05:15.120Z,12.10
2022-09-16T01:08:00.193Z,12.00
2022-09-16T01:10:27.020Z,12.00
2022-09-16T01:13:01.484Z,11.90
2022-09-16T01:15:39.483Z,12.00
2022-09-16T01:18:31.437Z,11.90
2022-09-16T01:21:23.248Z,11.90
2022-09-16T01:24:16.523Z,11.80
2022-09-16T01:26:43.175Z,11.80
2022-09-16T01:29:12.544Z,11.80
2022-09-16T01:32:00.776Z,11.80
2022-09-16T01:34:57.279Z,11.70
2022-09-16T01:37:50.980Z,11.70
2022-09-16T01:40:49.658Z,11.70
2022-09-16T01:43:57.437Z,11.70
2022-09-16T01:46:28.824Z,11.70
2022-09-16T01:49:08.054Z,11.70
2022-09-16T01:51:48.144Z,11.70
2022-09-16T01:54:43.458Z,11.70
2022-09-16T01:57:38.064Z,11.70
2022-09-16T02:00:11.241Z,11.70
2022-09-16T02:02:58.880Z,11.60
2022-09-16T02:05:34.453Z,11.60
2022-09-16T02:08:10.368Z,11.60
2022-09-16T02:10:44.802Z,11.60
2022-09-16T02:13:19.516Z,11.50
2022-09-16T02:15:49.900Z,11.50
2022-09-16T02:18:22.307Z,11.50
2022-09-16T02:20:52.949Z,11.50
2022-09-16T02:23:23.765Z,11.50
2022-09-16T02:25:52.693Z,11.50
2022-09-16T02:28:24.844Z,11.40
2022-09-16T02:30:55.678Z,11.40
2022-09-16T02:33:25.365Z,11.40
2022-09-16T02:35:55.448Z,11.50
2022-09-16T02:38:30.187Z,11.50
2022-09-16T02:41:00.307Z,11.50
2022-09-16T02:43:27.902Z,11.50
2022-09-16T02:46:13.459Z,11.50
2022-09-16T02:49:03.972Z,11.50
2022-09-16T02:51:56.852Z,11.50
2022-09-16T02:54:56.150Z,11.60
2022-09-16T02:57:22.910Z,11.60
2022-09-16T02:59:50.169Z,11.60
2022-09-16T03:02:17.070Z,11.60
2022-09-16T03:04:44.465Z,11.60
2022-09-16T03:07:12.276Z,11.70
2022-09-16T03:09:42.644Z,11.70
2022-09-16T03:12:52.066Z,11.70
2022-09-16T03:15:43.209Z,11.70
2022-09-16T03:18:50.952Z,11.70
2022-09-16T03:21:40.580Z,11.60
2022-09-16T03:24:07.208Z,11.60
2022-09-16T03:26:56.153Z,11.60
2022-09-16T03:29:36.470Z,11.70
2022-09-16T03:32:10.512Z,11.70
2022-09-16T03:34:48.699Z,11.70
2022-09-16T03:37:19.131Z,11.70
2022-09-16T03:39:55.660Z,11.70
2022-09-16T03:42:22.541Z,11.70
2022-09-16T03:44:49.748Z,11.70
2022-09-16T03:47:17.983Z,11.70
2022-09-16T03:49:44.565Z,11.70
2022-09-16T03:52:11.416Z,11.80
2022-09-16T03:54:38.852Z,11.80
2022-09-16T03:57:06.508Z,11.70
2022-09-16T03:59:33.208Z,11.70
2022-09-16T04:02:00.024Z,11.60
2022-09-16T04:04:26.730Z,11.70
2022-09-16T04:06:53.371Z,11.60
2022-09-16T04:09:20.090Z,11.60
2022-09-16T04:11:46.687Z,11.60
2022-09-16T04:14:13.416Z,11.60
2022-09-16T04:16:44.387Z,11.60
2022-09-16T04:19:13.468Z,11.50
2022-09-16T04:21:41.567Z,11.50
2022-09-16T04:24:12.960Z,11.50
2022-09-16T04:26:40.607Z,11.40
2022-09-16T04:29:07.431Z,11.40
2022-09-16T04:31:34.081Z,11.50
2022-09-16T04:34:04.327Z,11.40
2022-09-16T04:36:31.219Z,11.50
2022-09-16T04:38:58.063Z,11.50
2022-09-16T04:41:26.809Z,11.50
2022-09-16T04:43:58.771Z,11.50
2022-09-16T04:46:30.216Z,11.50
2022-09-16T04:48:57.423Z,11.50
2022-09-16T04:51:27.249Z,11.50
2022-09-16T04:53:55.882Z,11.50
2022-09-16T04:56:25.739Z,11.60
2022-09-16T04:58:58.606Z,11.60
2022-09-16T05:01:31.083Z,11.60
2022-09-16T05:04:00.326Z,11.60
2022-09-16T05:06:30.133Z,11.60
2022-09-16T05:08:57.133Z,11.50
2022-09-16T05:11:26.382Z,11.50
2022-09-16T05:13:53.183Z,11.50
2022-09-16T05:16:23.632Z,11.50
2022-09-16T05:18:53.862Z,11.60
2022-09-16T05:21:22.139Z,11.50
2022-09-16T05:23:49.220Z,11.50
2022-09-16T05:26:27.112Z,11.50
2022-09-16T05:28:54.040Z,11.50
2022-09-16T05:31:22.268Z,11.50
2022-09-16T05:33:57.566Z,11.50
2022-09-16T05:36:25.822Z,11.60
2022-09-16T05:39:18.137Z,11.60
2022-09-16T05:41:39.671Z,11.70
2022-09-16T05:44:06.856Z,11.70
2022-09-16T05:46:33.782Z,11.60
2022-09-16T05:49:00.576Z,11.60
2022-09-16T05:51:27.798Z,11.60
2022-09-16T05:53:55.157Z,11.60
2022-09-16T05:56:25.897Z,11.70
2022-09-16T05:58:57.533Z,11.70
2022-09-16T06:01:27.361Z,11.70
2022-09-16T06:03:55.080Z,11.80
2022-09-16T06:06:29.169Z,11.80
2022-09-16T06:08:58.216Z,11.80
2022-09-16T06:11:26.319Z,11.80
2022-09-16T06:13:58.734Z,11.90
2022-09-16T06:16:26.704Z,11.90
2022-09-16T06:18:54.756Z,11.90
2022-09-16T06:21:21.847Z,12.00
2022-09-16T06:23:48.486Z,12.10
2022-09-16T06:26:21.063Z,12.10
2022-09-16T06:28:48.754Z,12.10
2022-09-16T06:31:18.338Z,12.10
2022-09-16T06:33:45.898Z,12.00
2022-09-16T06:36:16.202Z,12.10
2022-09-16T06:38:43.124Z,12.10
2022-09-16T06:41:11.603Z,12.10
2022-09-16T06:43:39.080Z,12.20
2022-09-16T06:46:13.726Z,12.20
2022-09-16T06:48:41.556Z,12.30
2022-09-16T06:51:12.069Z,12.30
2022-09-16T06:53:38.819Z,12.40
2022-09-16T06:56:08.652Z,12.50
2022-09-16T06:58:37.170Z,12.50
2022-09-16T07:01:08.004Z,12.60
2022-09-16T07:06:57.487Z,12.60
2022-09-16T07:09:17.145Z,12.70
2022-09-16T07:11:43.762Z,12.70
2022-09-16T07:14:10.486Z,12.80
2022-09-16T07:16:37.147Z,12.80
2022-09-16T07:19:04.515Z,12.90
2022-09-16T07:21:31.444Z,12.90
2022-09-16T07:23:59.991Z,12.90
2022-09-16T07:26:31.113Z,12.90
2022-09-16T07:29:00.810Z,12.90
2022-09-16T07:31:30.237Z,12.90
2022-09-16T07:34:03.530Z,13.00
2022-09-16T07:36:33.697Z,13.10
2022-09-16T07:39:00.608Z,13.30
2022-09-16T07:41:34.436Z,13.30
2022-09-16T07:44:02.324Z,13.40
2022-09-16T07:46:31.571Z,13.40
2022-09-16T07:48:59.885Z,13.60
2022-09-16T07:51:28.020Z,13.70
2022-09-16T07:53:58.560Z,13.60
2022-09-16T07:56:26.804Z,13.50
2022-09-16T07:58:54.669Z,13.40
2022-09-16T08:01:21.839Z,13.30
2022-09-16T08:03:49.024Z,13.40
2022-09-16T08:06:19.336Z,13.40
2022-09-16T08:08:46.006Z,13.50
2022-09-16T08:11:14.647Z,13.70
2022-09-16T08:13:42.680Z,13.80
2022-09-16T08:16:12.407Z,13.90
2022-09-16T08:18:39.512Z,14.00
2022-09-16T08:21:12.228Z,14.00
2022-09-16T08:23:39.593Z,14.00
2022-09-16T08:26:08.466Z,14.10
2022-09-16T08:28:45.230Z,14.30
2022-09-16T08:31:18.978Z,14.40
2022-09-16T08:33:46.105Z,14.50
2022-09-16T08:36:20.089Z,14.60
2022-09-16T08:38:48.659Z,14.70
2022-09-16T08:41:25.471Z,14.70
2022-09-16T08:44:13.223Z,14.60
2022-09-16T08:46:55.914Z,14.50
2022-09-16T08:49:45.726Z,14.40
2022-09-16T08:52:34.221Z,14.50
2022-09-16T08:55:08.236Z,14.60
2022-09-16T08:57:41.410Z,14.50
2022-09-16T09:00:17.799Z,14.50
2022-09-16T09:03:02.510Z,14.50
2022-09-16T09:05:41.262Z,14.60
2022-09-16T09:08:24.616Z,14.80
2022-09-16T09:10:57.451Z,14.90
2022-09-16T09:13:34.330Z,15.10
2022-09-16T09:16:28.536Z,15.30
2022-09-16T09:19:13.606Z,15.50
2022-09-16T09:22:05.241Z,15.30
2022-09-16T09:25:01.585Z,15.30
2022-09-16T09:27:46.448Z,15.30
2022-09-16T09:30:22.393Z,15.30
2022-09-16T09:33:34.180Z,15.30
2022-09-16T09:36:30.565Z,15.40
2022-09-16T09:39:18.465Z,15.50
2022-09-16T09:42:17.797Z,15.50
2022-09-16T09:45:05.049Z,15.40
2022-09-16T09:47:38.181Z,15.20
2022-09-16T09:50:23.670Z,15.20
2022-09-16T09:53:14.638Z,15.20
2022-09-16T09:55:42.625Z,15.10
2022-09-16T09:58:22.532Z,15.00
2022-09-16T10:00:49.436Z,14.90
2022-09-16T10:03:18.267Z,14.80
2022-09-16T10:05:46.459Z,14.80
2022-09-16T10:08:23.792Z,14.90
2022-09-16T10:10:52.710Z,15.10
2022-09-16T10:13:20.746Z,15.40
2022-09-16T10:15:52.028Z,15.70
2022-09-16T10:18:27.502Z,16.00
2022-09-16T10:21:07.697Z,16.00
2022-09-16T10:23:35.617Z,15.90
2022-09-16T10:26:26.494Z,15.90
2022-09-16T10:28:57.077Z,15.90
2022-09-16T10:31:29.178Z,15.90
2022-09-16T10:34:01.033Z,15.80
2022-09-16T10:36:32.192Z,15.80
2022-09-16T10:39:04.977Z,15.70
2022-09-16T10:41:47.557Z,15.70
2022-09-16T10:44:45.136Z,15.80
2022-09-16T10:47:27.087Z,15.80
2022-09-16T10:50:01.739Z,15.80
2022-09-16T10:52:31.079Z,16.10
2022-09-16T10:54:57.910Z,16.40
2022-09-16T10:57:31.952Z,16.60
2022-09-16T11:00:18.772Z,17.00
2022-09-16T11:02:51.516Z,17.30
2022-09-16T11:05:30.337Z,17.50
2022-09-16T11:08:27.237Z,17.70
2022-09-16T11:10:58.358Z,17.80
2022-09-16T11:13:39.269Z,17.70
2022-09-16T11:16:25.013Z,17.60
2022-09-16T11:19:21.550Z,17.40
2022-09-16T11:22:28.775Z,17.30
2022-09-16T11:25:23.735Z,17.20
2022-09-16T11:27:58.859Z,17.40
2022-09-16T11:30:25.787Z,17.50
2022-09-16T11:33:19.612Z,17.60
2022-09-16T11:36:11.894Z,17.60
2022-09-16T11:39:00.105Z,17.80
2022-09-16T11:41:42.974Z,18.20
2022-09-16T11:44:47.108Z,18.40
2022-09-16T11:47:25.881Z,18.90
2022-09-16T11:50:02.737Z,18.70
2022-09-16T11:52:38.236Z,18.30
2022-09-16T11:55:29.980Z,17.70
2022-09-16T11:58:01.486Z,17.20
2022-09-16T12:00:31.378Z,16.50
2022-09-16T12:03:38.337Z,16.30
2022-09-16T12:06:19.235Z,16.50
2022-09-16T12:09:08.968Z,16.50
2022-09-16T12:11:43.140Z,16.50
2022-09-16T12:14:24.137Z,16.40
2022-09-16T12:16:59.483Z,16.60
2022-09-16T12:19:37.732Z,17.00
2022-09-16T12:22:09.569Z,17.50
2022-09-16T12:24:56.669Z,17.70
2022-09-16T12:27:39.923Z,17.70
2022-09-16T12:30:16.800Z,18.00
2022-09-16T12:32:55.324Z,18.10
2022-09-16T12:35:28.711Z,18.40
2022-09-16T12:37:55.637Z,18.80
2022-09-16T12:40:47.733Z,18.90
2022-09-16T12:43:27.320Z,18.60
2022-09-16T12:46:23.663Z,18.00
2022-09-16T12:49:26.795Z,17.90
2022-09-16T12:52:18.638Z,18.00
2022-09-16T12:55:14.624Z,18.40
2022-09-16T12:57:53.176Z,19.00
2022-09-16T13:00:32.367Z,19.60
2022-09-16T13:03:23.423Z,19.50
2022-09-16T13:05:52.620Z,19.00
2022-09-16T13:08:29.703Z,19.20
2022-09-16T13:13:56.934Z,19.80
2022-09-16T13:16:35.731Z,19.60
2022-09-16T13:19:27.461Z,19.30
2022-09-16T13:22:31.516Z,19.00
2022-09-16T13:25:22.013Z,18.50
2022-09-16T13:28:23.268Z,18.10
2022-09-16T13:30:50.034Z,17.80
2022-09-16T13:33:26.562Z,17.80
2022-09-16T13:36:20.515Z,18.20
2022-09-16T13:38:55.403Z,18.70
2022-09-16T13:41:51.667Z,18.80
2022-09-16T13:44:36.898Z,18.80
2022-09-16T13:47:09.759Z,19.10
2022-09-16T13:49:53.811Z,19.60
2022-09-16T13:52:32.064Z,19.60
2022-09-16T13:55:12.315Z,20.10
2022-09-16T13:57:49.197Z,20.20
2022-09-16T14:00:42.173Z,19.70
2022-09-16T14:03:50.245Z,19.80
2022-09-16T14:06:31.764Z,19.10
2022-09-16T14:09:27.421Z,18.70
2022-09-16T14:12:19.221Z,18.40
2022-09-16T14:14:47.772Z,18.80
2022-09-16T14:17:20.641Z,19.20
2022-09-16T14:19:49.752Z,19.40
2022-09-16T14:22:18.879Z,19.60
2022-09-16T14:24:48.374Z,19.80
2022-09-16T14:27:21.637Z,19.50
2022-09-16T14:29:59.661Z,19.10
2022-09-16T14:32:30.592Z,19.10
2022-09-16T14:35:01.024Z,19.20
2022-09-16T14:37:30.464Z,19.40
2022-09-16T14:40:04.766Z,19.50
2022-09-16T14:42:31.790Z,19.50
2022-09-16T14:44:59.757Z,19.30
2022-09-16T14:47:52.371Z,19.30
2022-09-16T14:50:44.541Z,19.60
2022-09-16T14:53:36.268Z,20.00
2022-09-16T14:56:05.014Z,19.50
2022-09-16T14:58:33.697Z,19.20
2022-09-16T15:01:08.928Z,18.90
2022-09-16T15:04:01.233Z,18.50
2022-09-16T15:06:36.649Z,18.80
2022-09-16T15:09:17.778Z,18.70
2022-09-16T15:11:49.262Z,18.90
2022-09-16T15:14:17.881Z,18.90
2022-09-16T15:16:49.379Z,19.20
2022-09-16T15:19:21.631Z,19.40
2022-09-16T15:21:49.052Z,19.20
2022-09-16T15:24:24.848Z,19.30
2022-09-16T15:26:52.639Z,19.40
2022-09-16T15:29:20.183Z,19.40
2022-09-16T15:31:47.472Z,19.50
2022-09-16T15:34:18.647Z,19.70
2022-09-16T15:36:47.663Z,19.60
2022-09-16T15:39:34.041Z,19.30
2022-09-16T15:42:12.042Z,18.90
2022-09-16T15:44:54.125Z,18.60
2022-09-16T15:47:32.804Z,18.50
2022-09-16T15:50:04.504Z,18.40
2022-09-16T15:53:02.566Z,18.30
2022-09-16T15:55:37.471Z,18.00
2022-09-16T15:58:19.881Z,17.80
2022-09-16T16:01:13.932Z,17.60
2022-09-16T16:03:57.898Z,17.40
2022-09-16T16:06:44.645Z,17.40
2022-09-16T16:09:28.800Z,17.40
2022-09-16T16:12:02.582Z,17.50
2022-09-16T16:14:32.300Z,17.60
2022-09-16T16:17:14.971Z,17.80
2022-09-16T16:19:46.811Z,17.80
2022-09-16T16:22:14.850Z,17.80
2022-09-16T16:24:42.192Z,17.60
2022-09-16T16:27:09.034Z,17.60
2022-09-16T16:29:35.901Z,17.60
2022-09-16T16:32:06.723Z,17.60
2022-09-16T16:34:35.790Z,17.50
2022-09-16T16:37:03.545Z,17.50
2022-09-16T16:39:30.642Z,17.30
2022-09-16T16:41:57.484Z,17.20
2022-09-16T16:44:25.069Z,17.00
2022-09-16T16:46:55.485Z,17.00
2022-09-16T16:49:23.247Z,16.90
2022-09-16T16:51:52.036Z,16.80
2022-09-16T16:54:19.106Z,16.70
2022-09-16T16:56:46.552Z,16.70
2022-09-16T16:59:13.376Z,16.60
2022-09-16T17:01:43.315Z,16.50
2022-09-16T17:04:12.659Z,16.50
2022-09-16T17:06:40.141Z,16.50
2022-09-16T17:09:11.257Z,16.40
2022-09-16T17:11:57.213Z,16.30
2022-09-16T17:14:29.720Z,16.30
2022-09-16T17:16:57.644Z,16.30
2022-09-16T17:19:26.303Z,16.20
2022-09-16T17:21:53.813Z,16.10
2022-09-16T17:24:20.778Z,16.10
2022-09-16T17:26:48.273Z,16.00
2022-09-16T17:29:16.188Z,16.00
2022-09-16T17:31:43.682Z,15.90
2022-09-16T17:34:15.082Z,15.80
2022-09-16T17:36:46.638Z,15.80
2022-09-16T17:39:20.998Z,15.70
2022-09-16T17:41:49.375Z,15.60
2022-09-16T17:44:17.374Z,15.50
2022-09-16T17:46:45.101Z,15.50
2022-09-16T17:49:17.246Z,15.40
2022-09-16T17:51:44.277Z,15.40
2022-09-16T17:54:11.265Z,15.30
2022-09-16T17:56:38.200Z,15.20
2022-09-16T17:59:05.149Z,15.20
2022-09-16T18:01:31.799Z,15.20
2022-09-16T18:03:58.547Z,15.10
2022-09-16T18:06:31.394Z,15.10
2022-09-16T18:09:01.670Z,15.00
2022-09-16T18:11:28.511Z,14.90
2022-09-16T18:13:57.201Z,14.90
2022-09-16T18:16:24.603Z,14.80
2022-09-16T18:18:53.481Z,14.70
2022-09-16T18:21:21.425Z,14.70
2022-09-16T18:23:51.628Z,14.60
2022-09-16T18:26:18.810Z,14.60
2022-09-16T18:29:08.655Z,14.50
2022-09-16T18:31:34.803Z,14.50
2022-09-16T18:34:01.470Z,14.40
2022-09-16T18:36:30.163Z,14.40
2022-09-16T18:38:57.870Z,14.30
2022-09-16T18:41:27.382Z,14.30
2022-09-16T18:44:02.761Z,14.30
2022-09-16T18:46:32.390Z,14.30
2022-09-16T18:48:59.979Z,14.20
2022-09-16T18:51:32.490Z,14.10
2022-09-16T18:54:02.266Z,14.00
2022-09-16T18:56:32.092Z,14.00
2022-09-16T18:59:21.036Z,14.00
2022-09-16T19:01:49.620Z,13.90
2022-09-16T19:04:21.481Z,14.00
2022-09-16T19:06:50.290Z,14.00
2022-09-16T19:09:19.652Z,14.20
2022-09-16T19:11:46.825Z,14.30
2022-09-16T19:14:13.949Z,14.40
2022-09-16T19:16:44.970Z,14.50
2022-09-16T19:19:13.976Z,14.60
2022-09-16T19:21:42.065Z,14.70
2022-09-16T19:24:15.309Z,14.70
2022-09-16T19:26:43.547Z,14.70
2022-09-16T19:29:11.793Z,14.60
2022-09-16T19:31:40.706Z,14.40
2022-09-16T19:34:07.730Z,14.30
2022-09-16T19:36:35.568Z,14.20
2022-09-16T19:39:03.861Z,14.20
2022-09-16T19:41:32.294Z,14.20
2022-09-16T19:44:01.971Z,14.20
2022-09-16T19:46:31.790Z,14.20
2022-09-16T19:48:58.704Z,14.20
2022-09-16T19:51:26.308Z,14.10
2022-09-16T19:53:54.290Z,14.20
2022-09-16T19:56:23.845Z,14.20
2022-09-16T19:58:51.712Z,14.20
2022-09-16T20:01:24.212Z,14.20
2022-09-16T20:03:51.935Z,14.10
2022-09-16T20:06:21.908Z,14.00
2022-09-16T20:08:52.703Z,13.90
2022-09-16T20:11:21.698Z,13.80
2022-09-16T20:13:49.627Z,13.80
2022-09-16T20:16:18.482Z,13.70
2022-09-16T20:18:45.752Z,13.70
2022-09-16T20:21:15.730Z,13.50
2022-09-16T20:23:42.495Z,13.40
2022-09-16T20:26:11.992Z,13.20
2022-09-16T20:28:43.014Z,13.00
2022-09-16T20:31:11.568Z,12.80
2022-09-16T20:33:39.255Z,12.60
2022-09-16T20:36:08.304Z,12.40
2022-09-16T20:38:35.710Z,12.30
2022-09-16T20:41:09.734Z,12.10
2022-09-16T20:43:36.819Z,12.00
2022-09-16T20:46:05.865Z,12.00
2022-09-16T20:48:32.653Z,11.90
2022-09-16T20:51:04.744Z,11.80
2022-09-16T20:53:31.385Z,11.80
2022-09-16T20:56:03.515Z,11.80
2022-09-16T20:58:30.149Z,11.70
2022-09-16T21:01:13.177Z,11.70
2022-09-16T21:03:40.065Z,11.70
2022-09-16T21:06:14.773Z,11.60
2022-09-16T21:08:42.391Z,11.60
2022-09-16T21:11:14.550Z,11.50
2022-09-16T21:13:42.726Z,11.40
2022-09-16T21:16:11.615Z,11.30
2022-09-16T21:18:39.616Z,11.20
2022-09-16T21:21:13.446Z,11.20
2022-09-16T21:23:40.786Z,11.20
2022-09-16T21:26:17.101Z,11.20
2022-09-16T21:28:44.596Z,11.20
2022-09-16T21:31:13.516Z,11.20
2022-09-16T21:33:42.711Z,11.20
2022-09-16T21:36:11.768Z,11.20
2022-09-16T21:38:39.236Z,11.10
2022-09-16T21:41:26.621Z,11.10
2022-09-16T21:43:56.802Z,11.10
2022-09-16T21:46:28.774Z,11.10
2022-09-16T21:48:58.328Z,11.00
2022-09-16T21:51:25.054Z,10.90
2022-09-16T21:53:51.872Z,10.90
2022-09-16T21:56:20.988Z,10.90
2022-09-16T21:58:49.137Z,10.90
2022-09-16T22:01:17.613Z,10.90
2022-09-16T22:03:46.155Z,10.90
2022-09-16T22:06:15.162Z,10.90
2022-09-16T22:08:59.095Z,10.90
2022-09-16T22:11:28.373Z,10.90
2022-09-16T22:13:56.101Z,10.90
2022-09-16T22:16:28.840Z,10.90
2022-09-16T22:19:00.814Z,10.90
2022-09-16T22:21:29.825Z,11.00
2022-09-16T22:23:57.980Z,11.00
2022-09-16T22:26:25.026Z,11.00
2022-09-16T22:28:51.979Z,11.00
2022-09-16T22:31:27.350Z,11.00
2022-09-16T22:33:55.263Z,11.10
2022-09-16T22:36:25.391Z,11.10
2022-09-16T22:38:57.811Z,11.00
2022-09-16T22:41:25.275Z,11.00
2022-09-16T22:43:53.108Z,11.00
2022-09-16T22:46:25.397Z,11.10
2022-09-16T22:48:54.260Z,11.10
2022-09-16T22:51:21.577Z,11.10
2022-09-16T22:53:48.712Z,11.10
2022-09-16T22:56:24.992Z,11.20
2022-09-16T22:58:53.723Z,11.10
2022-09-16T23:01:23.487Z,11.10
2022-09-16T23:03:55.931Z,11.10
2022-09-16T23:06:24.728Z,11.20
2022-09-16T23:08:52.643Z,11.20
2022-09-16T23:11:23.666Z,11.20
2022-09-16T23:13:52.841Z,11.20
2022-09-16T23:16:27.018Z,11.20
2022-09-16T23:18:55.540Z,11.20
2022-09-16T23:21:23.556Z,11.20
2022-09-16T23:23:53.730Z,11.30
2022-09-16T23:26:23.155Z,11.30
2022-09-16T23:28:55.360Z,11.30
2022-09-16T23:31:27.687Z,11.30
2022-09-16T23:33:55.079Z,11.30
2022-09-16T23:36:22.548Z,11.30
2022-09-16T23:38:49.528Z,11.40
2022-09-16T23:41:20.515Z,11.40
2022-09-16T23:43:49.114Z,11.40
2022-09-16T23:46:18.302Z,11.40
2022-09-16T23:48:45.937Z,11.40
2022-09-16T23:51:12.929Z,11.40
2022-09-16T23:53:42.174Z,11.40
2022-09-16T23:56:10.484Z,11.50
2022-09-16T23:58:37.264Z,11.50
